Vacaville, California
Current Conditions -  °F | °C
As of 1:53 PM on Saturday 20 Dec 2014 (Local Time) from KVCB Reporting Station
Haze Haze  
Wind Chill: 57°   Ceiling: 800
Heat Index: 57°   Visibility: 4mi
Dew Point: 53°   Wind: 6mph
Humidity: 87%   Direction: 140°SE
Pressure: 30.2"   Gusts: NA
Location:  38.35°N, 121.99°W
Report Text: KVCB 202153Z AUTO 14005KT 4SM BR OVC008 14/12 A3020 RMK AO2 SLP226 T01390117 TSNO
Loading
Personal Weather Stations






























Interactive Weather Map New forecast layout! Learn more

10-Day Weather Forecast

Advertisements
Track Severe Weather on mobile